Ride Results

Mount Binga (07-10-2017)
Ride distance: 80.0 km

Outcomes - Mount Binga (07-10-2017)
Division No. of Entries Retired / DNE Completed Withdrawn Ineligible V/O Percentage Completed
HW 1 - 1 - - - 100.00%
MW 17 - 13 3 - 1 76.47%
LW 9 - 8 1 - - 88.89%
JN 13 - 12 - - 1 92.31%
Totals 40 - 34 4 - 2 85.00%
Results - Mount Binga (07-10-2017)
No. Rider Horse Place Time Leg Speeds Total
Km/Hr
H/R bpm
Heavyweight
837 Matthew Gadsby Shemesh El Miraj 1 (BC) 8:52:00 9.4, 8.6 9.02 38, 39, 44 (Avg:41)
Middleweight
865 Gayle Holmes Cairo 1 6:05:00 14.0, 12.3 13.15 37, 46, 54 (Avg:50)
855 Christopher Schofield Briallyn Alimah 1 (BC) 6:05:00 16.2, 11.0 13.15 34, 49, 50 (Avg:49)
852 Cora Becker Undurra Zorro 3 6:21:00 14.1, 11.3 12.60 31, 44, 49 (Avg:46)
856 Gina Matthews Monarchs Knight 4 6:39:00 13.4, 10.9 12.03 32, 49, 56 (Avg:52)
858 John Dugan Erin Park GBH 5 7:26:00 12.6, 9.3 10.76 35, 43, 59 (Avg:51)
838 Josey Wilson Banjo 5 7:26:00 12.4, 9.4 10.76 39, 54, 60 (Avg:57)
844 Tayla Crang Magic Glenn Kavita 7 8:09:00 9.9, 9.6 9.82 33, 36, 41 (Avg:38)
845 Amber Sole Brookleigh Gandalf 7 8:09:00 9.9, 9.6 9.82 38, 50, 59 (Avg:54)
873 Bianca Lamme Ausden Maverick 9 8:16:00 10.2, 9.1 9.68 31, 40, 48 (Avg:44)
839 Brook Sample Brookleigh Montana 10 8:32:00 9.9, 8.8 9.38 32, 36, 46 (Avg:41)
859 Damien Keys Elfar Tilly 11 8:37:00 9.8, 8.7 9.28 36, 38, 43 (Avg:40)
869 Hannah Riggs Briallyn Panache 12 8:45:00 9.7, 8.5 9.14 35, 51, 58 (Avg:54)
846 Corey Nix Macrocarpa Pleiade 13 9:08:00 8.7, 8.7 8.76 35, 38, 46 (Avg:42)
860 Virginia Barber Warregal Withdrawn L1 0:00:00 - - 32, 51 (Avg:51)
834 Fiona Fenech Winderella Lodge Sphinx Lame L1 0:00:00 10.1 - 37, 43 (Avg:43)
874 Sharon Foster Fortaleza Mystical Silver Withdrawn L1 0:00:00 - - 39, 38 (Avg:38)
872 Lexi Morton Arny's Bad Moon Arisin Withdrawn P/R 0:00:00 - - 33
Lightweight
857 Janelle Taylor Glenewan Scout 1 (BC) 6:05:00 11.4, 15.4 13.15 36, 43, 60 (Avg:51)
870 Christal Rizk Kynnum Park Jai 2 8:00:00 10.4, 9.5 10.00 45, 43, 51 (Avg:47)
862 Shelley Chapman Cameo Bizmarck 3 8:06:00 10.3, 9.4 9.88 36, 45, 50 (Avg:47)
841 Anna Wyroslak Magic Glenn Glamour Girl 4 8:09:00 9.9, 9.6 9.82 29, 41, 43 (Avg:42)
863 Miki Bell Bombastic 5 8:37:00 10.0, 8.6 9.28 37, 47, 51 (Avg:49)
868 Candy Gurtner Aloha Party Girl 6 8:45:00 9.7, 8.5 9.14 28, 38, 40 (Avg:39)
836 Mindy Davies Cearadale Saahara 7 8:52:00 9.4, 8.6 9.02 32, 38, 43 (Avg:40)
866 Ashleigh Grassick Dunbar Caspian 8 9:06:00 8.9, 8.6 8.79 33, 43, 42 (Avg:42)
840 Alexa Field Brookleigh Marlon Withdrawn P/R 0:00:00 - - 33
Junior
851 Anu Woodruff-Becker Count Shaunessy 1 (BC) 6:21:00 14.1, 11.3 12.60 42, 42, 47 (Avg:44)
853 Noah Hoogland Monarch Park Cimarron 2 7:26:00 12.6, 9.3 10.76 43, 47, 48 (Avg:47)
871 Georgia Morton Ramalea Magnum 3 8:00:00 10.4, 9.5 10.00 36, 45, 51 (Avg:48)
864 Ben Hoey Pocket Rocket Patience 4 8:02:00 10.2, 9.6 9.96 30, 44, 48 (Avg:46)
861 Maeve Paten Bremervale Paragon 5 8:06:00 10.3, 9.4 9.88 37, 47, 53 (Avg:50)
850 Charlize Renner Edenfels Crystal Kaz 6 8:07:00 10.3, 9.4 9.86 31, 38, 39 (Avg:38)
835 Emma Dimech Performance Park Captain Jack 7 8:16:00 10.1, 9.2 9.68 42, 44, 46 (Avg:45)
842 Matty Sample Gheerulla Amethyst 8 8:32:00 9.9, 8.8 9.38 36, 41, 48 (Avg:44)
843 Zac Sample Magic Glenn Azulia 8 8:32:00 9.9, 8.8 9.38 35, 40, 49 (Avg:44)
854 Scarlet McQueen Kynnum Park Mr Epona 10 8:37:00 10.0, 8.6 9.28 36, 45, 46 (Avg:45)
867 Tamara Gibson Dunbar Magnolia 11 9:06:00 8.9, 8.6 8.79 40, 37, 40 (Avg:38)
847 Sanjay Nix Castlebar Consort 12 9:08:00 8.7, 8.7 8.76 35, 43, 47 (Avg:45)
875 Modena Schofield-Foster Sharabel Kalarney Gall or injury L1 0:00:00 11.0 - 39